createdAt,value
2018-09-27T00:00:00.784Z,8.10
2018-09-27T00:02:30.288Z,8.00
2018-09-27T00:04:59.884Z,8.10
2018-09-27T00:07:29.649Z,8.20
2018-09-27T00:09:58.830Z,8.50
2018-09-27T00:12:27.982Z,8.60
2018-09-27T00:14:57.486Z,8.60
2018-09-27T00:17:26.815Z,8.40
2018-09-27T00:19:56.067Z,8.60
2018-09-27T00:22:25.435Z,8.70
2018-09-27T00:24:54.796Z,8.80
2018-09-27T00:27:24.212Z,8.90
2018-09-27T00:29:53.698Z,8.90
2018-09-27T00:32:22.840Z,8.50
2018-09-27T00:34:52.236Z,8.10
2018-09-27T00:37:21.580Z,7.90
2018-09-27T00:39:50.816Z,7.80
2018-09-27T00:42:20.456Z,7.90
2018-09-27T00:44:49.894Z,8.00
2018-09-27T00:47:18.989Z,8.00
2018-09-27T00:49:48.375Z,8.30
2018-09-27T00:52:17.653Z,8.40
2018-09-27T00:54:46.885Z,8.70
2018-09-27T00:57:16.288Z,8.60
2018-09-27T00:59:46.048Z,8.60
2018-09-27T01:02:15.815Z,8.60
2018-09-27T01:04:45.135Z,8.70
2018-09-27T01:07:14.498Z,8.70
2018-09-27T01:09:44.187Z,8.60
2018-09-27T01:12:13.739Z,8.40
2018-09-27T01:14:43.120Z,8.30
2018-09-27T01:17:12.216Z,8.10
2018-09-27T01:19:41.700Z,7.80
2018-09-27T01:22:11.392Z,7.80
2018-09-27T01:24:40.631Z,7.60
2018-09-27T01:27:09.935Z,7.90
2018-09-27T01:29:39.160Z,8.10
2018-09-27T01:32:08.460Z,8.50
2018-09-27T01:34:37.392Z,8.60
2018-09-27T01:37:06.881Z,8.10
2018-09-27T01:39:35.908Z,8.10
2018-09-27T01:42:05.243Z,8.30
2018-09-27T01:44:34.953Z,8.30
2018-09-27T01:47:04.224Z,8.30
2018-09-27T01:49:34.302Z,8.10
2018-09-27T01:52:03.492Z,7.80
2018-09-27T01:54:32.595Z,7.50
2018-09-27T01:57:01.812Z,7.60
2018-09-27T01:59:31.281Z,7.60
2018-09-27T02:02:00.720Z,7.80
2018-09-27T02:04:29.937Z,8.00
2018-09-27T02:06:59.284Z,8.10
2018-09-27T02:09:28.872Z,8.10
2018-09-27T02:11:58.244Z,8.10
2018-09-27T02:14:28.740Z,8.00
2018-09-27T02:16:58.033Z,8.10
2018-09-27T02:19:27.348Z,7.90
2018-09-27T02:21:56.604Z,7.90
2018-09-27T02:24:26.576Z,7.90
2018-09-27T02:26:55.925Z,7.90
2018-09-27T02:29:25.375Z,8.00
2018-09-27T02:31:54.759Z,8.00
2018-09-27T02:34:24.435Z,7.90
2018-09-27T02:36:53.717Z,7.80
2018-09-27T02:39:22.915Z,7.90
2018-09-27T02:41:52.239Z,8.10
2018-09-27T02:44:21.848Z,8.10
2018-09-27T02:46:50.893Z,7.80
2018-09-27T02:49:20.188Z,7.70
2018-09-27T02:51:49.485Z,7.70
2018-09-27T02:54:18.760Z,7.70
2018-09-27T02:56:48.281Z,7.70
2018-09-27T02:59:17.803Z,8.10
2018-09-27T03:01:46.956Z,8.50
2018-09-27T03:04:16.402Z,8.50
2018-09-27T03:06:45.921Z,8.50
2018-09-27T03:09:15.175Z,8.50
2018-09-27T03:11:44.412Z,8.60
2018-09-27T03:14:13.888Z,8.60
2018-09-27T03:16:43.298Z,8.60
2018-09-27T03:19:12.400Z,8.70
2018-09-27T03:21:41.659Z,8.80
2018-09-27T03:24:11.220Z,8.90
2018-09-27T03:26:40.361Z,8.90
2018-09-27T03:29:09.765Z,9.00
2018-09-27T03:31:39.230Z,9.00
2018-09-27T03:34:08.649Z,9.20
2018-09-27T03:36:38.038Z,9.10
2018-09-27T03:39:08.596Z,9.10
2018-09-27T03:41:37.569Z,9.20
2018-09-27T03:44:07.196Z,9.10
2018-09-27T03:46:36.756Z,9.20
2018-09-27T03:49:06.171Z,9.20
2018-09-27T03:51:35.273Z,9.30
2018-09-27T03:54:04.565Z,9.20
2018-09-27T03:56:33.846Z,9.20
2018-09-27T03:59:03.897Z,9.20
2018-09-27T04:01:33.771Z,9.20
2018-09-27T04:04:03.108Z,9.20
2018-09-27T04:06:32.421Z,9.20
2018-09-27T04:09:01.767Z,9.20
2018-09-27T04:11:30.962Z,9.30
2018-09-27T04:14:00.484Z,9.30
2018-09-27T04:16:29.744Z,9.30
2018-09-27T04:18:59.209Z,9.30
2018-09-27T04:21:28.489Z,9.40
2018-09-27T04:23:57.921Z,9.30
2018-09-27T04:26:27.348Z,9.40
2018-09-27T04:28:56.668Z,9.40
2018-09-27T04:31:25.924Z,9.40
2018-09-27T04:33:55.282Z,9.40
2018-09-27T04:36:24.752Z,9.60
2018-09-27T04:38:53.850Z,9.60
2018-09-27T04:41:23.434Z,9.60
2018-09-27T04:43:53.005Z,9.50
2018-09-27T04:46:22.247Z,9.50
2018-09-27T04:48:51.874Z,9.50
2018-09-27T04:51:21.429Z,9.50
2018-09-27T04:53:50.884Z,9.50
2018-09-27T04:56:20.177Z,9.50
2018-09-27T04:58:49.685Z,9.60
2018-09-27T05:01:18.954Z,9.50
2018-09-27T05:03:48.086Z,9.50
2018-09-27T05:06:17.889Z,9.50
2018-09-27T05:08:47.361Z,9.50
2018-09-27T05:11:16.772Z,9.70
2018-09-27T05:13:46.579Z,9.70
2018-09-27T05:16:16.143Z,9.70
2018-09-27T05:18:45.680Z,9.80
2018-09-27T05:21:15.180Z,9.80
2018-09-27T05:23:44.344Z,9.80
2018-09-27T05:26:13.820Z,9.80
2018-09-27T05:28:43.422Z,9.80
2018-09-27T05:31:13.008Z,9.80
2018-09-27T05:33:42.448Z,9.80
2018-09-27T05:36:12.028Z,9.70
2018-09-27T05:38:41.621Z,9.80
2018-09-27T05:41:10.995Z,9.80
2018-09-27T05:43:40.360Z,9.80
2018-09-27T05:46:09.989Z,9.90
2018-09-27T05:48:39.633Z,9.90
2018-09-27T05:51:09.216Z,9.90
2018-09-27T05:53:38.976Z,9.90
2018-09-27T05:56:08.172Z,10.00
2018-09-27T05:58:38.113Z,10.00
2018-09-27T06:01:07.589Z,10.10
2018-09-27T06:03:36.847Z,10.10
2018-09-27T06:06:06.168Z,10.10
2018-09-27T06:08:35.604Z,10.10
2018-09-27T06:11:04.859Z,10.20
2018-09-27T06:13:34.290Z,10.20
2018-09-27T06:16:03.632Z,10.30
2018-09-27T06:18:32.943Z,10.20
2018-09-27T06:21:03.419Z,10.30
2018-09-27T06:23:32.889Z,10.20
2018-09-27T06:26:02.368Z,10.20
2018-09-27T06:28:31.955Z,10.20
2018-09-27T06:31:01.265Z,10.30
2018-09-27T06:33:30.758Z,10.40
2018-09-27T06:36:00.225Z,10.50
2018-09-27T06:38:29.867Z,10.40
2018-09-27T06:40:59.068Z,10.40
2018-09-27T06:43:28.579Z,10.30
2018-09-27T06:45:57.879Z,10.40
2018-09-27T06:48:27.309Z,10.50
2018-09-27T06:50:56.660Z,10.60
2018-09-27T06:53:26.150Z,10.50
2018-09-27T06:55:55.660Z,10.40
2018-09-27T06:58:24.863Z,10.50
2018-09-27T07:00:54.173Z,10.50
2018-09-27T07:03:23.498Z,10.60
2018-09-27T07:05:52.957Z,10.60
2018-09-27T07:08:22.519Z,10.60
2018-09-27T07:10:51.525Z,10.60
2018-09-27T07:13:21.001Z,10.70
2018-09-27T07:15:50.544Z,10.60
2018-09-27T07:18:19.816Z,10.60
2018-09-27T07:20:49.093Z,10.60
2018-09-27T07:23:18.375Z,10.70
2018-09-27T07:25:47.981Z,10.60
2018-09-27T07:28:17.408Z,10.60
2018-09-27T07:30:46.722Z,10.60
2018-09-27T07:33:15.856Z,10.60
2018-09-27T07:35:45.463Z,10.70
2018-09-27T07:38:15.024Z,10.80
2018-09-27T07:40:44.206Z,10.80
2018-09-27T07:43:13.502Z,10.90
2018-09-27T07:45:42.900Z,11.00
2018-09-27T07:48:12.090Z,11.10
2018-09-27T07:50:41.614Z,11.10
2018-09-27T07:53:11.080Z,11.10
2018-09-27T07:55:40.895Z,11.30
2018-09-27T07:58:10.769Z,11.40
2018-09-27T08:00:40.535Z,11.50
2018-09-27T08:03:10.144Z,11.50
2018-09-27T08:05:39.741Z,11.60
2018-09-27T08:08:09.464Z,11.60
2018-09-27T08:10:38.933Z,11.70
2018-09-27T08:13:09.280Z,11.80
2018-09-27T08:15:39.164Z,12.00
2018-09-27T08:18:08.676Z,12.10
2018-09-27T08:20:38.312Z,12.20
2018-09-27T08:23:07.513Z,12.20
2018-09-27T08:25:36.948Z,12.30
2018-09-27T08:28:06.501Z,12.30
2018-09-27T08:30:35.960Z,12.30
2018-09-27T08:33:05.416Z,12.30
2018-09-27T08:35:34.917Z,12.40
2018-09-27T08:38:04.538Z,12.30
2018-09-27T08:40:33.953Z,12.40
2018-09-27T08:43:03.152Z,12.40
2018-09-27T08:45:32.740Z,12.40
2018-09-27T08:48:01.975Z,12.60
2018-09-27T08:50:33.221Z,12.60
2018-09-27T08:53:02.668Z,12.80
2018-09-27T08:55:32.151Z,12.90
2018-09-27T08:58:02.576Z,13.10
2018-09-27T09:00:32.125Z,13.20
2018-09-27T09:03:01.555Z,13.20
2018-09-27T09:05:30.929Z,13.20
2018-09-27T09:08:00.498Z,13.20
2018-09-27T09:10:29.740Z,13.30
2018-09-27T09:12:59.311Z,13.50
2018-09-27T09:15:28.954Z,13.50
2018-09-27T09:17:58.530Z,13.60
2018-09-27T09:20:27.732Z,13.70
2018-09-27T09:22:56.857Z,13.90
2018-09-27T09:25:26.365Z,14.00
2018-09-27T09:27:55.768Z,13.90
2018-09-27T09:30:25.418Z,14.10
2018-09-27T09:32:54.671Z,14.10
2018-09-27T09:35:24.225Z,14.10
2018-09-27T09:37:53.375Z,14.50
2018-09-27T09:40:23.016Z,14.90
2018-09-27T09:42:52.390Z,15.50
2018-09-27T09:45:21.659Z,15.60
2018-09-27T09:47:51.335Z,15.70
2018-09-27T09:50:21.217Z,16.10
2018-09-27T09:52:50.439Z,16.40
2018-09-27T09:55:19.871Z,16.50
2018-09-27T09:57:49.270Z,16.40
2018-09-27T10:00:18.633Z,16.60
2018-09-27T10:02:47.708Z,16.20
2018-09-27T10:05:18.373Z,16.20
2018-09-27T10:07:47.763Z,16.10
2018-09-27T10:10:17.757Z,16.30
2018-09-27T10:12:46.955Z,16.70
2018-09-27T10:15:16.218Z,16.50
2018-09-27T10:17:45.529Z,16.60
2018-09-27T10:20:15.182Z,16.60
2018-09-27T10:22:44.775Z,16.80
2018-09-27T10:25:14.273Z,17.00
2018-09-27T10:27:43.619Z,17.10
2018-09-27T10:30:13.743Z,17.70
2018-09-27T10:32:43.413Z,18.00
2018-09-27T10:35:12.817Z,18.40
2018-09-27T10:37:42.269Z,19.10
2018-09-27T10:40:11.659Z,19.20
2018-09-27T10:42:41.536Z,18.40
2018-09-27T10:45:10.966Z,18.50
2018-09-27T10:47:40.699Z,19.00
2018-09-27T10:50:10.041Z,19.80
2018-09-27T10:52:39.879Z,20.20
2018-09-27T10:55:10.016Z,19.20
2018-09-27T10:57:39.748Z,19.50
2018-09-27T11:00:08.913Z,19.70
2018-09-27T11:02:38.552Z,20.20
2018-09-27T11:05:08.120Z,20.00
2018-09-27T11:07:38.112Z,20.30
2018-09-27T11:10:13.058Z,20.30
2018-09-27T11:12:43.655Z,20.70
2018-09-27T11:15:18.589Z,20.20
2018-09-27T11:17:49.164Z,20.50
2018-09-27T11:20:18.608Z,20.70
2018-09-27T11:22:48.240Z,20.70
2018-09-27T11:25:17.636Z,20.90
2018-09-27T11:27:47.184Z,20.60
2018-09-27T11:30:22.540Z,20.40
2018-09-27T11:32:52.255Z,20.10
2018-09-27T11:35:26.054Z,21.10
2018-09-27T11:37:55.087Z,22.00
2018-09-27T11:40:24.545Z,21.70
2018-09-27T11:42:54.015Z,21.30
2018-09-27T11:45:23.420Z,20.50
2018-09-27T11:47:52.902Z,20.30
2018-09-27T11:50:22.607Z,19.90
2018-09-27T11:52:52.180Z,20.20
2018-09-27T11:55:21.330Z,20.20
2018-09-27T11:57:50.855Z,20.90
2018-09-27T12:00:20.510Z,20.80
2018-09-27T12:02:49.725Z,21.80
2018-09-27T12:05:19.208Z,21.60
2018-09-27T12:07:48.717Z,21.10
2018-09-27T12:10:20.971Z,20.00
2018-09-27T12:12:50.287Z,19.60
2018-09-27T12:15:19.546Z,19.30
2018-09-27T12:17:48.875Z,19.90
2018-09-27T12:20:19.781Z,20.50
2018-09-27T12:22:49.102Z,20.90
2018-09-27T12:25:18.553Z,21.20
2018-09-27T12:27:47.742Z,19.70
2018-09-27T12:30:17.700Z,20.20
2018-09-27T12:32:46.771Z,19.40
2018-09-27T12:35:16.168Z,18.70
2018-09-27T12:37:45.525Z,19.20
2018-09-27T12:40:15.728Z,19.60
2018-09-27T12:42:45.228Z,19.00
2018-09-27T12:45:14.763Z,19.00
2018-09-27T12:47:44.752Z,18.70
2018-09-27T12:50:16.120Z,18.80
2018-09-27T12:52:45.791Z,18.20
2018-09-27T12:55:15.119Z,18.00
2018-09-27T12:57:44.664Z,18.30
2018-09-27T13:00:15.493Z,18.20
2018-09-27T13:02:45.128Z,18.40
2018-09-27T13:05:14.297Z,18.30
2018-09-27T13:07:45.837Z,18.40
2018-09-27T13:10:17.131Z,18.50
2018-09-27T13:12:46.875Z,18.30
2018-09-27T13:15:16.334Z,18.50
2018-09-27T13:17:45.688Z,18.30
2018-09-27T13:20:18.199Z,18.10
2018-09-27T13:22:47.556Z,17.90
2018-09-27T13:25:17.254Z,17.90
2018-09-27T13:27:46.614Z,17.90
2018-09-27T13:30:17.562Z,17.90
2018-09-27T13:32:46.820Z,17.80
2018-09-27T13:35:16.372Z,17.90
2018-09-27T13:37:45.482Z,17.70
2018-09-27T13:40:16.949Z,17.60
2018-09-27T13:42:46.059Z,17.70
2018-09-27T13:45:15.284Z,17.60
2018-09-27T13:47:44.941Z,17.30
2018-09-27T13:50:14.788Z,17.40
2018-09-27T13:52:47.145Z,17.40
2018-09-27T13:55:16.686Z,17.40
2018-09-27T13:57:47.727Z,17.30
2018-09-27T14:00:17.024Z,17.30
2018-09-27T14:02:46.387Z,17.40
2018-09-27T14:05:15.707Z,17.50
2018-09-27T14:07:44.765Z,17.40
2018-09-27T14:10:14.417Z,17.20
2018-09-27T14:12:43.920Z,17.30
2018-09-27T14:15:13.302Z,17.30
2018-09-27T14:17:42.537Z,17.20
2018-09-27T14:20:12.253Z,17.00
2018-09-27T14:22:41.928Z,17.00
2018-09-27T14:25:11.979Z,17.10
2018-09-27T14:27:41.714Z,17.20
2018-09-27T14:30:12.098Z,17.20
2018-09-27T14:32:42.365Z,17.10
2018-09-27T14:35:11.557Z,17.10
2018-09-27T14:37:40.894Z,17.10
2018-09-27T14:40:10.843Z,17.10
2018-09-27T14:42:40.659Z,17.00
2018-09-27T14:45:10.323Z,16.90
2018-09-27T14:47:42.785Z,17.00
2018-09-27T14:50:14.626Z,16.90
2018-09-27T14:52:43.813Z,17.00
2018-09-27T14:55:13.029Z,17.10
2018-09-27T14:57:42.519Z,16.90
2018-09-27T15:00:12.201Z,16.80
2018-09-27T15:02:42.322Z,16.80
2018-09-27T15:05:11.392Z,16.90
2018-09-27T15:07:40.615Z,16.70
2018-09-27T15:10:10.315Z,16.70
2018-09-27T15:12:39.947Z,16.70
2018-09-27T15:15:09.545Z,16.60
2018-09-27T15:17:39.108Z,16.40
2018-09-27T15:20:08.603Z,16.40
2018-09-27T15:22:39.571Z,16.50
2018-09-27T15:25:08.885Z,16.40
2018-09-27T15:27:38.800Z,16.40
2018-09-27T15:30:08.096Z,16.30
2018-09-27T15:32:37.841Z,16.20
2018-09-27T15:35:07.387Z,16.20
2018-09-27T15:37:37.603Z,16.20
2018-09-27T15:40:07.209Z,16.10
2018-09-27T15:42:36.581Z,16.10
2018-09-27T15:45:06.032Z,16.20
2018-09-27T15:47:35.484Z,16.20
2018-09-27T15:50:04.964Z,16.10
2018-09-27T15:52:34.735Z,16.10
2018-09-27T15:55:04.324Z,16.10
2018-09-27T15:57:33.668Z,16.00
2018-09-27T16:00:03.942Z,15.90
2018-09-27T16:02:33.104Z,15.90
2018-09-27T16:05:02.715Z,15.70
2018-09-27T16:07:33.074Z,15.70
2018-09-27T16:10:02.436Z,15.60
2018-09-27T16:12:32.020Z,15.60
2018-09-27T16:15:01.137Z,15.60
2018-09-27T16:17:30.487Z,15.60
2018-09-27T16:19:59.780Z,15.30
2018-09-27T16:22:29.365Z,15.20
2018-09-27T16:24:58.634Z,15.20
2018-09-27T16:27:27.829Z,15.10
2018-09-27T16:29:57.144Z,15.00
2018-09-27T16:32:27.024Z,14.70
2018-09-27T16:34:56.118Z,14.60
2018-09-27T16:37:25.420Z,14.20
2018-09-27T16:39:55.019Z,13.90
2018-09-27T16:42:25.418Z,13.90
2018-09-27T16:44:55.076Z,13.50
2018-09-27T16:47:25.243Z,13.40
2018-09-27T16:49:54.991Z,13.20
2018-09-27T16:52:26.184Z,13.00
2018-09-27T16:54:55.928Z,12.80
2018-09-27T16:57:25.228Z,12.70
2018-09-27T16:59:54.685Z,12.80
2018-09-27T17:02:24.611Z,12.90
2018-09-27T17:04:54.793Z,12.80
2018-09-27T17:07:23.876Z,12.60
2018-09-27T17:09:53.567Z,12.50
2018-09-27T17:12:23.073Z,12.40
2018-09-27T17:14:52.641Z,12.30
2018-09-27T17:17:22.333Z,12.30
2018-09-27T17:19:56.782Z,12.30
2018-09-27T17:22:27.339Z,12.30
2018-09-27T17:24:56.806Z,12.10
2018-09-27T17:27:26.461Z,11.90
2018-09-27T17:29:55.899Z,11.90
2018-09-27T17:32:25.173Z,11.90
2018-09-27T17:34:54.357Z,11.80
2018-09-27T17:37:23.898Z,11.70
2018-09-27T17:39:53.510Z,11.60
2018-09-27T17:42:23.690Z,11.40
2018-09-27T17:44:52.897Z,11.20
2018-09-27T17:47:21.900Z,11.20
2018-09-27T17:49:51.427Z,11.20
2018-09-27T17:52:21.048Z,11.20
2018-09-27T17:54:50.791Z,11.20
2018-09-27T17:57:23.389Z,11.10
2018-09-27T17:59:55.121Z,11.00
2018-09-27T18:02:25.033Z,10.90
2018-09-27T18:04:54.964Z,10.90
2018-09-27T18:07:24.372Z,10.80
2018-09-27T18:09:53.647Z,10.80
2018-09-27T18:12:23.406Z,10.70
2018-09-27T18:14:53.688Z,10.60
2018-09-27T18:17:22.853Z,10.20
2018-09-27T18:19:52.117Z,10.30
2018-09-27T18:22:21.669Z,10.40
2018-09-27T18:24:51.289Z,10.30
2018-09-27T18:27:20.804Z,10.20
2018-09-27T18:29:49.832Z,10.10
2018-09-27T18:32:19.037Z,10.00
2018-09-27T18:34:48.308Z,9.90
2018-09-27T18:37:17.745Z,9.80
2018-09-27T18:39:47.060Z,9.90
2018-09-27T18:42:16.273Z,10.00
2018-09-27T18:44:45.689Z,10.00
2018-09-27T18:47:15.189Z,10.00
2018-09-27T18:49:44.706Z,10.00
2018-09-27T18:52:14.155Z,9.90
2018-09-27T18:54:43.708Z,9.90
2018-09-27T18:57:12.980Z,9.90
2018-09-27T18:59:42.628Z,9.70
2018-09-27T19:02:12.008Z,9.80
2018-09-27T19:04:41.336Z,9.80
2018-09-27T19:07:11.136Z,9.70
2018-09-27T19:09:41.316Z,9.60
2018-09-27T19:12:10.535Z,9.60
2018-09-27T19:14:39.775Z,9.50
2018-09-27T19:17:08.970Z,9.50
2018-09-27T19:19:38.273Z,9.50
2018-09-27T19:22:07.847Z,9.50
2018-09-27T19:24:37.031Z,9.40
2018-09-27T19:27:06.321Z,9.30
2018-09-27T19:29:35.759Z,9.10
2018-09-27T19:32:04.884Z,9.10
2018-09-27T19:34:34.091Z,9.10
2018-09-27T19:37:03.359Z,9.10
2018-09-27T19:39:33.708Z,9.10
2018-09-27T19:42:02.886Z,8.80
2018-09-27T19:44:32.903Z,8.70
2018-09-27T19:47:03.101Z,8.80
2018-09-27T19:49:32.740Z,8.80
2018-09-27T19:52:03.711Z,8.60
2018-09-27T19:54:32.830Z,8.60
2018-09-27T19:57:02.292Z,8.50
2018-09-27T19:59:31.724Z,8.40
2018-09-27T20:02:00.993Z,8.50
2018-09-27T20:04:30.686Z,8.50
2018-09-27T20:07:00.017Z,8.50
2018-09-27T20:09:29.349Z,8.50
2018-09-27T20:11:58.743Z,8.50
2018-09-27T20:14:28.152Z,8.40
2018-09-27T20:16:57.505Z,8.40
2018-09-27T20:19:27.282Z,8.40
2018-09-27T20:21:56.427Z,8.40
2018-09-27T20:24:26.025Z,8.30
2018-09-27T20:26:55.824Z,8.20
2018-09-27T20:29:25.558Z,8.20
2018-09-27T20:31:54.875Z,8.10
2018-09-27T20:34:24.543Z,8.10
2018-09-27T20:36:54.122Z,8.00
2018-09-27T20:39:25.525Z,7.90
2018-09-27T20:41:55.008Z,8.00
2018-09-27T20:44:24.617Z,8.00
2018-09-27T20:46:54.518Z,8.10
2018-09-27T20:49:24.121Z,8.20
2018-09-27T20:51:53.383Z,8.30
2018-09-27T20:54:22.600Z,8.20
2018-09-27T20:56:52.340Z,8.10
2018-09-27T20:59:21.731Z,8.00
2018-09-27T21:01:51.232Z,8.00
2018-09-27T21:04:20.829Z,8.00
2018-09-27T21:06:50.147Z,8.00
2018-09-27T21:09:19.395Z,8.00
2018-09-27T21:11:48.491Z,8.00
2018-09-27T21:14:17.892Z,8.00
2018-09-27T21:16:47.513Z,7.90
2018-09-27T21:19:16.851Z,7.90
2018-09-27T21:21:46.038Z,7.80
2018-09-27T21:24:15.976Z,7.80
2018-09-27T21:26:45.436Z,7.60
2018-09-27T21:29:14.613Z,7.60
2018-09-27T21:31:44.530Z,7.50
2018-09-27T21:34:13.807Z,7.50
2018-09-27T21:36:42.913Z,7.50
2018-09-27T21:39:12.063Z,7.60
2018-09-27T21:41:41.264Z,7.60
2018-09-27T21:44:10.716Z,7.50
2018-09-27T21:46:40.112Z,7.30
2018-09-27T21:49:09.280Z,7.30
2018-09-27T21:51:39.139Z,7.50
2018-09-27T21:54:08.948Z,7.30
2018-09-27T21:56:38.175Z,7.30
2018-09-27T21:59:07.134Z,7.40
2018-09-27T22:01:36.648Z,7.40
2018-09-27T22:04:06.239Z,7.40
2018-09-27T22:06:35.477Z,7.30
2018-09-27T22:09:06.970Z,7.30
2018-09-27T22:11:35.932Z,7.20
2018-09-27T22:14:05.240Z,7.20
2018-09-27T22:16:34.488Z,7.20
2018-09-27T22:19:04.048Z,7.20
2018-09-27T22:21:33.068Z,7.10
2018-09-27T22:24:02.598Z,7.10
2018-09-27T22:26:31.868Z,7.10
2018-09-27T22:29:01.186Z,7.10
2018-09-27T22:31:30.707Z,7.00
2018-09-27T22:33:59.868Z,7.00
2018-09-27T22:36:29.331Z,7.00
2018-09-27T22:38:59.335Z,7.10
2018-09-27T22:41:28.525Z,7.00
2018-09-27T22:43:57.779Z,6.80
2018-09-27T22:46:26.947Z,6.70
2018-09-27T22:48:56.065Z,6.90
2018-09-27T22:51:25.324Z,6.90
2018-09-27T22:53:54.953Z,6.80
2018-09-27T22:56:23.975Z,6.90
2018-09-27T22:58:53.253Z,6.90
2018-09-27T23:01:22.399Z,6.90
2018-09-27T23:03:51.529Z,7.00
2018-09-27T23:06:20.756Z,6.70
2018-09-27T23:08:50.201Z,6.80
2018-09-27T23:11:19.491Z,6.80
2018-09-27T23:13:48.793Z,6.90
2018-09-27T23:16:18.148Z,6.80
2018-09-27T23:18:47.554Z,6.90
2018-09-27T23:21:16.930Z,6.90
2018-09-27T23:23:46.635Z,7.00
2018-09-27T23:26:15.968Z,7.00
2018-09-27T23:28:45.583Z,7.00
2018-09-27T23:31:14.872Z,6.90
2018-09-27T23:33:44.725Z,6.90
2018-09-27T23:36:14.072Z,6.80
2018-09-27T23:38:43.276Z,6.80
2018-09-27T23:41:12.372Z,6.80
2018-09-27T23:43:41.816Z,6.70
2018-09-27T23:46:11.881Z,6.50
2018-09-27T23:48:41.277Z,6.50
2018-09-27T23:51:10.696Z,6.60
2018-09-27T23:53:39.892Z,6.60
2018-09-27T23:56:09.504Z,6.60
2018-09-27T23:58:38.633Z,6.70
